sensor_id;sensor_type;location;lat;lon;timestamp;P1;durP1;ratioP1;P2;durP2;ratioP2
38693;SDS011;24447;43.460;25.744;2023-07-31T00:01:36;7.78;;;3.22;;
38693;SDS011;24447;43.460;25.744;2023-07-31T00:04:02;8.23;;;3.83;;
38693;SDS011;24447;43.460;25.744;2023-07-31T00:06:28;2.40;;;2.20;;
38693;SDS011;24447;43.460;25.744;2023-07-31T00:08:54;5.20;;;2.80;;
38693;SDS011;24447;43.460;25.744;2023-07-31T00:11:19;3.53;;;2.60;;
38693;SDS011;24447;43.460;25.744;2023-07-31T00:13:45;4.32;;;2.30;;
38693;SDS011;24447;43.460;25.744;2023-07-31T00:16:11;5.40;;;2.42;;
38693;SDS011;24447;43.460;25.744;2023-07-31T00:18:37;7.07;;;2.33;;
38693;SDS011;24447;43.460;25.744;2023-07-31T00:21:03;3.83;;;2.53;;
38693;SDS011;24447;43.460;25.744;2023-07-31T00:23:29;4.53;;;2.30;;
38693;SDS011;24447;43.460;25.744;2023-07-31T00:25:55;5.85;;;2.40;;
38693;SDS011;24447;43.460;25.744;2023-07-31T00:28:21;6.00;;;3.00;;
38693;SDS011;24447;43.460;25.744;2023-07-31T00:30:47;5.53;;;3.10;;
38693;SDS011;24447;43.460;25.744;2023-07-31T00:33:13;9.18;;;2.90;;
38693;SDS011;24447;43.460;25.744;2023-07-31T00:35:39;4.65;;;2.55;;
38693;SDS011;24447;43.460;25.744;2023-07-31T00:38:05;7.47;;;3.15;;
38693;SDS011;24447;43.460;25.744;2023-07-31T00:40:34;5.50;;;3.10;;
38693;SDS011;24447;43.460;25.744;2023-07-31T00:43:03;5.45;;;2.67;;
38693;SDS011;24447;43.460;25.744;2023-07-31T00:45:29;5.53;;;3.47;;
38693;SDS011;24447;43.460;25.744;2023-07-31T00:47:56;5.28;;;3.08;;
38693;SDS011;24447;43.460;25.744;2023-07-31T00:50:22;4.60;;;3.10;;
38693;SDS011;24447;43.460;25.744;2023-07-31T00:52:50;9.80;;;3.63;;
38693;SDS011;24447;43.460;25.744;2023-07-31T00:55:16;6.60;;;3.67;;
38693;SDS011;24447;43.460;25.744;2023-07-31T00:57:42;7.03;;;3.95;;
38693;SDS011;24447;43.460;25.744;2023-07-31T01:00:08;7.07;;;3.75;;
38693;SDS011;24447;43.460;25.744;2023-07-31T01:02:35;8.68;;;3.75;;
38693;SDS011;24447;43.460;25.744;2023-07-31T01:05:01;8.93;;;4.20;;
38693;SDS011;24447;43.460;25.744;2023-07-31T01:12:38;6.85;;;4.15;;
38693;SDS011;24447;43.460;25.744;2023-07-31T01:15:05;7.63;;;4.53;;
38693;SDS011;24447;43.460;25.744;2023-07-31T01:20:02;6.35;;;4.05;;
38693;SDS011;24447;43.460;25.744;2023-07-31T01:22:35;9.65;;;4.88;;
38693;SDS011;24447;43.460;25.744;2023-07-31T01:28:23;9.57;;;4.93;;
38693;SDS011;24447;43.460;25.744;2023-07-31T01:30:52;9.27;;;4.85;;
38693;SDS011;24447;43.460;25.744;2023-07-31T01:33:20;8.48;;;4.55;;
38693;SDS011;24447;43.460;25.744;2023-07-31T01:35:46;7.70;;;4.57;;
38693;SDS011;24447;43.460;25.744;2023-07-31T01:38:13;7.40;;;4.70;;
38693;SDS011;24447;43.460;25.744;2023-07-31T01:40:42;7.25;;;4.20;;
38693;SDS011;24447;43.460;25.744;2023-07-31T01:43:08;10.88;;;5.00;;
38693;SDS011;24447;43.460;25.744;2023-07-31T01:45:35;9.05;;;4.72;;
38693;SDS011;24447;43.460;25.744;2023-07-31T01:48:00;9.30;;;4.95;;
38693;SDS011;24447;43.460;25.744;2023-07-31T01:50:26;8.32;;;4.38;;
38693;SDS011;24447;43.460;25.744;2023-07-31T01:52:52;9.70;;;5.10;;
38693;SDS011;24447;43.460;25.744;2023-07-31T01:55:18;8.98;;;4.95;;
38693;SDS011;24447;43.460;25.744;2023-07-31T01:57:44;17.15;;;5.13;;
38693;SDS011;24447;43.460;25.744;2023-07-31T02:00:10;10.35;;;5.60;;
38693;SDS011;24447;43.460;25.744;2023-07-31T02:02:36;9.65;;;5.20;;
38693;SDS011;24447;43.460;25.744;2023-07-31T02:05:02;11.90;;;5.25;;
38693;SDS011;24447;43.460;25.744;2023-07-31T02:07:28;7.55;;;4.38;;
38693;SDS011;24447;43.460;25.744;2023-07-31T02:09:54;8.20;;;4.90;;
38693;SDS011;24447;43.460;25.744;2023-07-31T02:12:20;11.88;;;5.88;;
38693;SDS011;24447;43.460;25.744;2023-07-31T02:14:46;9.10;;;4.95;;
38693;SDS011;24447;43.460;25.744;2023-07-31T02:17:12;23.20;;;6.15;;
38693;SDS011;24447;43.460;25.744;2023-07-31T02:19:38;8.70;;;5.05;;
38693;SDS011;24447;43.460;25.744;2023-07-31T02:22:04;12.57;;;5.88;;
38693;SDS011;24447;43.460;25.744;2023-07-31T02:24:30;10.40;;;4.95;;
38693;SDS011;24447;43.460;25.744;2023-07-31T02:26:57;9.70;;;5.75;;
38693;SDS011;24447;43.460;25.744;2023-07-31T02:29:22;10.93;;;6.07;;
38693;SDS011;24447;43.460;25.744;2023-07-31T02:31:48;9.50;;;5.55;;
38693;SDS011;24447;43.460;25.744;2023-07-31T02:34:14;11.77;;;5.53;;
38693;SDS011;24447;43.460;25.744;2023-07-31T02:36:40;9.52;;;5.55;;
38693;SDS011;24447;43.460;25.744;2023-07-31T02:39:06;13.27;;;6.15;;
38693;SDS011;24447;43.460;25.744;2023-07-31T02:41:32;11.25;;;6.18;;
38693;SDS011;24447;43.460;25.744;2023-07-31T02:43:58;10.52;;;5.93;;
38693;SDS011;24447;43.460;25.744;2023-07-31T02:46:24;10.63;;;5.93;;
38693;SDS011;24447;43.460;25.744;2023-07-31T02:48:50;10.07;;;5.90;;
38693;SDS011;24447;43.460;25.744;2023-07-31T02:51:16;14.40;;;6.25;;
38693;SDS011;24447;43.460;25.744;2023-07-31T02:53:42;10.95;;;5.68;;
38693;SDS011;24447;43.460;25.744;2023-07-31T02:56:08;14.38;;;6.63;;
38693;SDS011;24447;43.460;25.744;2023-07-31T02:58:34;10.35;;;6.15;;
38693;SDS011;24447;43.460;25.744;2023-07-31T03:01:00;12.65;;;6.45;;
38693;SDS011;24447;43.460;25.744;2023-07-31T03:03:26;9.45;;;5.70;;
38693;SDS011;24447;43.460;25.744;2023-07-31T03:05:52;11.60;;;5.63;;
38693;SDS011;24447;43.460;25.744;2023-07-31T03:08:18;12.95;;;6.15;;
38693;SDS011;24447;43.460;25.744;2023-07-31T03:10:44;11.18;;;6.13;;
38693;SDS011;24447;43.460;25.744;2023-07-31T03:13:10;11.60;;;6.78;;
38693;SDS011;24447;43.460;25.744;2023-07-31T03:15:35;12.00;;;6.55;;
38693;SDS011;24447;43.460;25.744;2023-07-31T03:18:01;12.20;;;6.07;;
38693;SDS011;24447;43.460;25.744;2023-07-31T03:20:27;14.68;;;6.20;;
38693;SDS011;24447;43.460;25.744;2023-07-31T03:22:53;11.57;;;6.40;;
38693;SDS011;24447;43.460;25.744;2023-07-31T03:25:19;13.30;;;6.70;;
38693;SDS011;24447;43.460;25.744;2023-07-31T03:27:45;11.43;;;6.75;;
38693;SDS011;24447;43.460;25.744;2023-07-31T03:30:11;12.82;;;7.10;;
38693;SDS011;24447;43.460;25.744;2023-07-31T03:32:37;10.98;;;6.47;;
38693;SDS011;24447;43.460;25.744;2023-07-31T03:35:03;14.60;;;7.30;;
38693;SDS011;24447;43.460;25.744;2023-07-31T03:37:30;14.23;;;6.72;;
38693;SDS011;24447;43.460;25.744;2023-07-31T03:39:56;15.95;;;6.68;;
38693;SDS011;24447;43.460;25.744;2023-07-31T03:42:22;13.18;;;7.38;;
38693;SDS011;24447;43.460;25.744;2023-07-31T03:44:48;14.70;;;7.32;;
38693;SDS011;24447;43.460;25.744;2023-07-31T03:47:14;12.52;;;6.90;;
38693;SDS011;24447;43.460;25.744;2023-07-31T03:49:40;15.60;;;6.72;;
38693;SDS011;24447;43.460;25.744;2023-07-31T03:52:06;11.27;;;6.55;;
38693;SDS011;24447;43.460;25.744;2023-07-31T03:54:32;11.52;;;6.43;;
38693;SDS011;24447;43.460;25.744;2023-07-31T03:56:58;12.65;;;6.88;;
38693;SDS011;24447;43.460;25.744;2023-07-31T03:59:24;10.52;;;6.18;;
38693;SDS011;24447;43.460;25.744;2023-07-31T04:01:50;13.85;;;7.80;;
38693;SDS011;24447;43.460;25.744;2023-07-31T04:04:15;14.15;;;7.40;;
38693;SDS011;24447;43.460;25.744;2023-07-31T04:06:41;12.18;;;7.00;;
38693;SDS011;24447;43.460;25.744;2023-07-31T04:09:07;11.85;;;6.93;;
38693;SDS011;24447;43.460;25.744;2023-07-31T04:11:33;12.70;;;6.97;;
38693;SDS011;24447;43.460;25.744;2023-07-31T04:13:59;10.57;;;6.10;;
38693;SDS011;24447;43.460;25.744;2023-07-31T04:16:25;13.63;;;6.28;;
38693;SDS011;24447;43.460;25.744;2023-07-31T04:18:51;12.95;;;7.13;;
38693;SDS011;24447;43.460;25.744;2023-07-31T04:21:17;15.43;;;7.05;;
38693;SDS011;24447;43.460;25.744;2023-07-31T04:23:43;13.27;;;6.75;;
38693;SDS011;24447;43.460;25.744;2023-07-31T04:26:09;14.70;;;7.40;;
38693;SDS011;24447;43.460;25.744;2023-07-31T04:28:35;11.93;;;6.43;;
38693;SDS011;24447;43.460;25.744;2023-07-31T04:31:01;12.65;;;7.03;;
38693;SDS011;24447;43.460;25.744;2023-07-31T04:33:27;12.95;;;7.15;;
38693;SDS011;24447;43.460;25.744;2023-07-31T04:35:53;13.10;;;7.10;;
38693;SDS011;24447;43.460;25.744;2023-07-31T04:38:20;12.25;;;6.40;;
38693;SDS011;24447;43.460;25.744;2023-07-31T04:40:46;13.00;;;7.10;;
38693;SDS011;24447;43.460;25.744;2023-07-31T04:43:12;13.15;;;6.72;;
38693;SDS011;24447;43.460;25.744;2023-07-31T04:45:38;16.00;;;7.65;;
38693;SDS011;24447;43.460;25.744;2023-07-31T04:48:04;14.68;;;8.27;;
38693;SDS011;24447;43.460;25.744;2023-07-31T04:50:30;13.25;;;7.65;;
38693;SDS011;24447;43.460;25.744;2023-07-31T04:52:56;16.95;;;8.30;;
38693;SDS011;24447;43.460;25.744;2023-07-31T04:55:23;15.88;;;8.00;;
38693;SDS011;24447;43.460;25.744;2023-07-31T04:57:49;16.50;;;8.68;;
38693;SDS011;24447;43.460;25.744;2023-07-31T05:00:15;15.13;;;7.85;;
38693;SDS011;24447;43.460;25.744;2023-07-31T05:02:41;16.15;;;8.90;;
38693;SDS011;24447;43.460;25.744;2023-07-31T05:05:07;18.27;;;10.02;;
38693;SDS011;24447;43.460;25.744;2023-07-31T05:07:33;18.08;;;9.70;;
38693;SDS011;24447;43.460;25.744;2023-07-31T05:09:59;17.42;;;9.43;;
38693;SDS011;24447;43.460;25.744;2023-07-31T05:12:25;17.52;;;9.25;;
38693;SDS011;24447;43.460;25.744;2023-07-31T05:14:51;16.33;;;9.25;;
38693;SDS011;24447;43.460;25.744;2023-07-31T05:17:17;20.35;;;10.70;;
38693;SDS011;24447;43.460;25.744;2023-07-31T05:19:43;20.17;;;11.10;;
38693;SDS011;24447;43.460;25.744;2023-07-31T05:22:08;21.85;;;11.40;;
38693;SDS011;24447;43.460;25.744;2023-07-31T05:24:34;21.80;;;11.40;;
38693;SDS011;24447;43.460;25.744;2023-07-31T05:27:00;20.27;;;11.68;;
38693;SDS011;24447;43.460;25.744;2023-07-31T05:29:26;20.95;;;11.15;;
38693;SDS011;24447;43.460;25.744;2023-07-31T05:31:52;19.65;;;11.15;;
38693;SDS011;24447;43.460;25.744;2023-07-31T05:34:18;22.75;;;12.93;;
38693;SDS011;24447;43.460;25.744;2023-07-31T05:36:44;21.92;;;12.45;;
38693;SDS011;24447;43.460;25.744;2023-07-31T05:39:10;20.58;;;11.35;;
38693;SDS011;24447;43.460;25.744;2023-07-31T05:41:36;22.58;;;12.90;;
38693;SDS011;24447;43.460;25.744;2023-07-31T05:44:02;21.27;;;11.73;;
38693;SDS011;24447;43.460;25.744;2023-07-31T05:46:28;20.55;;;12.82;;
38693;SDS011;24447;43.460;25.744;2023-07-31T05:48:54;20.45;;;12.10;;
38693;SDS011;24447;43.460;25.744;2023-07-31T05:51:23;20.75;;;12.63;;
38693;SDS011;24447;43.460;25.744;2023-07-31T05:53:49;25.17;;;12.82;;
38693;SDS011;24447;43.460;25.744;2023-07-31T05:56:15;21.40;;;12.65;;
38693;SDS011;24447;43.460;25.744;2023-07-31T05:58:41;21.98;;;12.45;;
38693;SDS011;24447;43.460;25.744;2023-07-31T06:01:07;21.70;;;13.38;;
38693;SDS011;24447;43.460;25.744;2023-07-31T06:03:33;20.80;;;13.10;;
38693;SDS011;24447;43.460;25.744;2023-07-31T06:05:59;22.23;;;13.85;;
38693;SDS011;24447;43.460;25.744;2023-07-31T06:08:25;20.90;;;12.23;;
38693;SDS011;24447;43.460;25.744;2023-07-31T06:10:51;21.50;;;13.63;;
38693;SDS011;24447;43.460;25.744;2023-07-31T06:13:16;20.45;;;12.48;;
38693;SDS011;24447;43.460;25.744;2023-07-31T06:15:42;22.85;;;13.75;;
38693;SDS011;24447;43.460;25.744;2023-07-31T06:18:08;21.83;;;13.48;;
38693;SDS011;24447;43.460;25.744;2023-07-31T06:20:35;21.45;;;12.68;;
38693;SDS011;24447;43.460;25.744;2023-07-31T06:23:01;24.52;;;13.40;;
38693;SDS011;24447;43.460;25.744;2023-07-31T06:25:28;19.95;;;11.43;;
38693;SDS011;24447;43.460;25.744;2023-07-31T06:27:55;19.92;;;12.38;;
38693;SDS011;24447;43.460;25.744;2023-07-31T06:30:21;21.10;;;11.98;;
38693;SDS011;24447;43.460;25.744;2023-07-31T06:32:47;21.40;;;12.95;;
38693;SDS011;24447;43.460;25.744;2023-07-31T06:35:13;19.65;;;11.55;;
38693;SDS011;24447;43.460;25.744;2023-07-31T06:37:39;20.42;;;11.98;;
38693;SDS011;24447;43.460;25.744;2023-07-31T06:40:05;22.55;;;13.18;;
38693;SDS011;24447;43.460;25.744;2023-07-31T06:42:34;23.83;;;13.57;;
38693;SDS011;24447;43.460;25.744;2023-07-31T06:45:00;22.58;;;12.93;;
38693;SDS011;24447;43.460;25.744;2023-07-31T06:47:27;22.08;;;12.60;;
38693;SDS011;24447;43.460;25.744;2023-07-31T06:49:53;23.65;;;13.25;;
38693;SDS011;24447;43.460;25.744;2023-07-31T06:52:19;22.50;;;13.38;;
38693;SDS011;24447;43.460;25.744;2023-07-31T06:54:50;21.98;;;13.55;;
38693;SDS011;24447;43.460;25.744;2023-07-31T06:57:26;24.02;;;13.25;;
38693;SDS011;24447;43.460;25.744;2023-07-31T06:59:52;28.58;;;14.23;;
38693;SDS011;24447;43.460;25.744;2023-07-31T07:02:18;22.60;;;13.63;;
38693;SDS011;24447;43.460;25.744;2023-07-31T07:04:44;23.52;;;13.75;;
38693;SDS011;24447;43.460;25.744;2023-07-31T07:07:10;21.80;;;14.38;;
38693;SDS011;24447;43.460;25.744;2023-07-31T07:09:36;25.00;;;14.65;;
38693;SDS011;24447;43.460;25.744;2023-07-31T07:12:02;22.70;;;13.68;;
38693;SDS011;24447;43.460;25.744;2023-07-31T07:14:28;21.60;;;12.82;;
38693;SDS011;24447;43.460;25.744;2023-07-31T07:16:54;21.02;;;11.90;;
38693;SDS011;24447;43.460;25.744;2023-07-31T07:19:20;21.30;;;12.05;;
38693;SDS011;24447;43.460;25.744;2023-07-31T07:21:46;22.02;;;12.25;;
38693;SDS011;24447;43.460;25.744;2023-07-31T07:24:12;24.38;;;13.20;;
38693;SDS011;24447;43.460;25.744;2023-07-31T07:26:38;30.25;;;13.68;;
38693;SDS011;24447;43.460;25.744;2023-07-31T07:29:04;20.88;;;11.68;;
38693;SDS011;24447;43.460;25.744;2023-07-31T07:31:32;19.92;;;11.60;;
38693;SDS011;24447;43.460;25.744;2023-07-31T07:33:58;17.55;;;10.43;;
38693;SDS011;24447;43.460;25.744;2023-07-31T07:36:27;22.92;;;11.77;;
38693;SDS011;24447;43.460;25.744;2023-07-31T07:38:53;18.83;;;10.70;;
38693;SDS011;24447;43.460;25.744;2023-07-31T07:41:19;21.67;;;11.65;;
38693;SDS011;24447;43.460;25.744;2023-07-31T07:43:45;22.50;;;11.70;;
38693;SDS011;24447;43.460;25.744;2023-07-31T07:46:11;22.67;;;11.35;;
38693;SDS011;24447;43.460;25.744;2023-07-31T07:48:37;24.00;;;10.40;;
38693;SDS011;24447;43.460;25.744;2023-07-31T07:51:03;19.83;;;10.45;;
38693;SDS011;24447;43.460;25.744;2023-07-31T07:53:29;22.83;;;11.10;;
38693;SDS011;24447;43.460;25.744;2023-07-31T07:55:55;20.25;;;11.23;;
38693;SDS011;24447;43.460;25.744;2023-07-31T07:58:21;24.23;;;12.75;;
38693;SDS011;24447;43.460;25.744;2023-07-31T08:00:50;19.77;;;11.27;;
38693;SDS011;24447;43.460;25.744;2023-07-31T08:03:17;20.27;;;11.75;;
38693;SDS011;24447;43.460;25.744;2023-07-31T08:05:43;17.50;;;10.95;;
38693;SDS011;24447;43.460;25.744;2023-07-31T08:08:13;19.85;;;10.10;;
38693;SDS011;24447;43.460;25.744;2023-07-31T08:10:41;20.27;;;11.05;;
38693;SDS011;24447;43.460;25.744;2023-07-31T08:13:07;19.90;;;9.68;;
38693;SDS011;24447;43.460;25.744;2023-07-31T08:15:33;21.60;;;10.27;;
38693;SDS011;24447;43.460;25.744;2023-07-31T08:17:59;21.30;;;9.82;;
38693;SDS011;24447;43.460;25.744;2023-07-31T08:20:26;16.83;;;9.70;;
38693;SDS011;24447;43.460;25.744;2023-07-31T08:22:52;16.75;;;9.43;;
38693;SDS011;24447;43.460;25.744;2023-07-31T08:25:18;23.17;;;11.40;;
38693;SDS011;24447;43.460;25.744;2023-07-31T08:27:44;16.08;;;9.15;;
38693;SDS011;24447;43.460;25.744;2023-07-31T08:30:11;18.15;;;9.77;;
38693;SDS011;24447;43.460;25.744;2023-07-31T08:32:37;18.02;;;8.70;;
38693;SDS011;24447;43.460;25.744;2023-07-31T08:35:03;16.30;;;8.73;;
38693;SDS011;24447;43.460;25.744;2023-07-31T08:37:29;17.15;;;9.80;;
38693;SDS011;24447;43.460;25.744;2023-07-31T08:39:55;16.67;;;8.65;;
38693;SDS011;24447;43.460;25.744;2023-07-31T08:42:21;18.50;;;9.07;;
38693;SDS011;24447;43.460;25.744;2023-07-31T08:44:47;13.70;;;8.55;;
38693;SDS011;24447;43.460;25.744;2023-07-31T08:47:14;16.65;;;9.43;;
38693;SDS011;24447;43.460;25.744;2023-07-31T08:49:41;19.75;;;9.80;;
38693;SDS011;24447;43.460;25.744;2023-07-31T08:52:08;17.58;;;10.15;;
38693;SDS011;24447;43.460;25.744;2023-07-31T08:54:34;17.45;;;9.05;;
38693;SDS011;24447;43.460;25.744;2023-07-31T08:56:59;14.43;;;8.13;;
38693;SDS011;24447;43.460;25.744;2023-07-31T08:59:29;16.02;;;8.27;;
38693;SDS011;24447;43.460;25.744;2023-07-31T09:01:57;14.32;;;7.95;;
38693;SDS011;24447;43.460;25.744;2023-07-31T09:04:24;12.05;;;7.00;;
38693;SDS011;24447;43.460;25.744;2023-07-31T09:06:51;13.10;;;7.05;;
38693;SDS011;24447;43.460;25.744;2023-07-31T09:09:22;16.27;;;7.82;;
38693;SDS011;24447;43.460;25.744;2023-07-31T09:11:49;14.95;;;7.70;;
38693;SDS011;24447;43.460;25.744;2023-07-31T09:14:15;16.75;;;7.97;;
38693;SDS011;24447;43.460;25.744;2023-07-31T09:16:55;15.02;;;8.27;;
38693;SDS011;24447;43.460;25.744;2023-07-31T09:19:27;15.50;;;8.45;;
38693;SDS011;24447;43.460;25.744;2023-07-31T09:21:55;15.73;;;7.90;;
38693;SDS011;24447;43.460;25.744;2023-07-31T09:24:30;12.68;;;7.75;;
38693;SDS011;24447;43.460;25.744;2023-07-31T09:26:57;18.73;;;8.05;;
38693;SDS011;24447;43.460;25.744;2023-07-31T09:29:25;12.52;;;6.97;;
38693;SDS011;24447;43.460;25.744;2023-07-31T09:31:52;14.20;;;7.50;;
38693;SDS011;24447;43.460;25.744;2023-07-31T09:34:18;17.27;;;7.60;;
38693;SDS011;24447;43.460;25.744;2023-07-31T09:36:49;13.32;;;6.78;;
38693;SDS011;24447;43.460;25.744;2023-07-31T09:39:17;10.27;;;5.97;;
38693;SDS011;24447;43.460;25.744;2023-07-31T09:41:46;9.27;;;6.10;;
38693;SDS011;24447;43.460;25.744;2023-07-31T09:44:13;15.15;;;6.55;;
38693;SDS011;24447;43.460;25.744;2023-07-31T09:46:39;11.18;;;6.22;;
38693;SDS011;24447;43.460;25.744;2023-07-31T09:49:09;10.27;;;5.75;;
38693;SDS011;24447;43.460;25.744;2023-07-31T09:51:36;12.38;;;6.30;;
38693;SDS011;24447;43.460;25.744;2023-07-31T09:54:16;8.65;;;5.20;;
38693;SDS011;24447;43.460;25.744;2023-07-31T09:56:43;11.25;;;5.13;;
38693;SDS011;24447;43.460;25.744;2023-07-31T09:59:10;8.98;;;5.00;;
38693;SDS011;24447;43.460;25.744;2023-07-31T10:01:41;11.90;;;5.78;;
38693;SDS011;24447;43.460;25.744;2023-07-31T10:04:08;11.77;;;5.90;;
38693;SDS011;24447;43.460;25.744;2023-07-31T10:06:35;9.18;;;5.78;;
38693;SDS011;24447;43.460;25.744;2023-07-31T10:09:08;9.85;;;5.93;;
38693;SDS011;24447;43.460;25.744;2023-07-31T10:11:38;12.73;;;6.32;;
38693;SDS011;24447;43.460;25.744;2023-07-31T10:14:09;14.77;;;7.15;;
38693;SDS011;24447;43.460;25.744;2023-07-31T10:16:37;13.40;;;7.07;;
38693;SDS011;24447;43.460;25.744;2023-07-31T10:19:03;13.13;;;6.75;;
38693;SDS011;24447;43.460;25.744;2023-07-31T10:21:31;13.82;;;7.75;;
38693;SDS011;24447;43.460;25.744;2023-07-31T10:24:02;14.98;;;7.03;;
38693;SDS011;24447;43.460;25.744;2023-07-31T10:26:29;14.55;;;7.68;;
38693;SDS011;24447;43.460;25.744;2023-07-31T10:28:58;14.63;;;7.45;;
38693;SDS011;24447;43.460;25.744;2023-07-31T10:31:26;14.50;;;7.93;;
38693;SDS011;24447;43.460;25.744;2023-07-31T10:33:55;12.82;;;7.18;;
38693;SDS011;24447;43.460;25.744;2023-07-31T10:36:23;12.55;;;6.72;;
38693;SDS011;24447;43.460;25.744;2023-07-31T10:38:49;13.73;;;8.18;;
38693;SDS011;24447;43.460;25.744;2023-07-31T10:41:16;13.80;;;6.82;;
38693;SDS011;24447;43.460;25.744;2023-07-31T10:43:42;18.67;;;9.40;;
38693;SDS011;24447;43.460;25.744;2023-07-31T10:46:12;16.67;;;8.05;;
38693;SDS011;24447;43.460;25.744;2023-07-31T10:48:39;15.32;;;6.95;;
38693;SDS011;24447;43.460;25.744;2023-07-31T10:51:12;14.13;;;7.05;;
38693;SDS011;24447;43.460;25.744;2023-07-31T10:53:39;11.43;;;6.95;;
38693;SDS011;24447;43.460;25.744;2023-07-31T10:56:06;16.05;;;7.45;;
38693;SDS011;24447;43.460;25.744;2023-07-31T10:58:40;16.55;;;8.15;;
38693;SDS011;24447;43.460;25.744;2023-07-31T11:01:09;15.73;;;7.80;;
38693;SDS011;24447;43.460;25.744;2023-07-31T11:03:45;13.52;;;7.55;;
38693;SDS011;24447;43.460;25.744;2023-07-31T11:06:17;13.98;;;7.03;;
38693;SDS011;24447;43.460;25.744;2023-07-31T11:08:44;13.25;;;7.10;;
38693;SDS011;24447;43.460;25.744;2023-07-31T11:11:11;15.07;;;7.70;;
38693;SDS011;24447;43.460;25.744;2023-07-31T11:13:45;14.38;;;8.00;;
38693;SDS011;24447;43.460;25.744;2023-07-31T11:16:15;14.25;;;7.57;;
38693;SDS011;24447;43.460;25.744;2023-07-31T11:18:43;13.98;;;7.18;;
38693;SDS011;24447;43.460;25.744;2023-07-31T11:21:13;16.88;;;7.95;;
38693;SDS011;24447;43.460;25.744;2023-07-31T11:23:40;13.88;;;6.95;;
38693;SDS011;24447;43.460;25.744;2023-07-31T11:26:06;12.85;;;7.50;;
38693;SDS011;24447;43.460;25.744;2023-07-31T11:28:33;13.48;;;7.28;;
38693;SDS011;24447;43.460;25.744;2023-07-31T11:30:59;18.77;;;7.47;;
38693;SDS011;24447;43.460;25.744;2023-07-31T11:33:26;13.10;;;7.15;;
38693;SDS011;24447;43.460;25.744;2023-07-31T11:35:52;15.73;;;8.68;;
38693;SDS011;24447;43.460;25.744;2023-07-31T11:40:56;12.50;;;6.88;;
38693;SDS011;24447;43.460;25.744;2023-07-31T11:43:23;11.77;;;6.63;;
38693;SDS011;24447;43.460;25.744;2023-07-31T11:45:50;12.60;;;6.88;;
38693;SDS011;24447;43.460;25.744;2023-07-31T11:48:21;13.05;;;6.80;;
38693;SDS011;24447;43.460;25.744;2023-07-31T11:50:51;10.75;;;6.22;;
38693;SDS011;24447;43.460;25.744;2023-07-31T11:53:28;11.40;;;6.53;;
38693;SDS011;24447;43.460;25.744;2023-07-31T11:56:00;12.97;;;7.27;;
38693;SDS011;24447;43.460;25.744;2023-07-31T11:58:32;13.88;;;6.47;;
38693;SDS011;24447;43.460;25.744;2023-07-31T12:00:59;9.40;;;5.72;;
38693;SDS011;24447;43.460;25.744;2023-07-31T12:03:26;11.93;;;6.20;;
38693;SDS011;24447;43.460;25.744;2023-07-31T12:05:52;10.18;;;5.88;;
38693;SDS011;24447;43.460;25.744;2023-07-31T12:08:20;11.15;;;5.90;;
38693;SDS011;24447;43.460;25.744;2023-07-31T12:10:46;7.82;;;5.05;;
38693;SDS011;24447;43.460;25.744;2023-07-31T12:13:20;10.57;;;5.93;;
38693;SDS011;24447;43.460;25.744;2023-07-31T12:15:47;12.45;;;5.47;;
38693;SDS011;24447;43.460;25.744;2023-07-31T12:18:13;10.70;;;5.93;;
38693;SDS011;24447;43.460;25.744;2023-07-31T12:20:41;14.32;;;6.32;;
38693;SDS011;24447;43.460;25.744;2023-07-31T12:23:12;16.98;;;7.43;;
38693;SDS011;24447;43.460;25.744;2023-07-31T12:28:40;12.50;;;6.50;;
38693;SDS011;24447;43.460;25.744;2023-07-31T12:31:08;11.88;;;6.55;;
38693;SDS011;24447;43.460;25.744;2023-07-31T12:33:36;12.55;;;7.57;;
38693;SDS011;24447;43.460;25.744;2023-07-31T12:36:05;13.00;;;7.20;;
38693;SDS011;24447;43.460;25.744;2023-07-31T12:38:33;14.23;;;7.75;;
38693;SDS011;24447;43.460;25.744;2023-07-31T12:40:59;13.95;;;7.90;;
38693;SDS011;24447;43.460;25.744;2023-07-31T12:43:26;13.98;;;8.40;;
38693;SDS011;24447;43.460;25.744;2023-07-31T12:45:53;14.93;;;8.73;;
38693;SDS011;24447;43.460;25.744;2023-07-31T12:48:20;15.50;;;8.82;;
38693;SDS011;24447;43.460;25.744;2023-07-31T12:50:46;14.52;;;8.25;;
38693;SDS011;24447;43.460;25.744;2023-07-31T12:53:12;16.15;;;8.57;;
38693;SDS011;24447;43.460;25.744;2023-07-31T12:55:38;20.90;;;9.82;;
38693;SDS011;24447;43.460;25.744;2023-07-31T12:58:04;16.52;;;9.38;;
38693;SDS011;24447;43.460;25.744;2023-07-31T13:00:30;19.20;;;11.13;;
38693;SDS011;24447;43.460;25.744;2023-07-31T13:02:56;20.10;;;11.45;;
38693;SDS011;24447;43.460;25.744;2023-07-31T13:05:21;22.50;;;12.38;;
38693;SDS011;24447;43.460;25.744;2023-07-31T13:07:48;22.50;;;11.85;;
38693;SDS011;24447;43.460;25.744;2023-07-31T13:10:14;21.33;;;11.98;;
38693;SDS011;24447;43.460;25.744;2023-07-31T13:12:40;20.52;;;11.57;;
38693;SDS011;24447;43.460;25.744;2023-07-31T13:15:06;20.85;;;11.57;;
38693;SDS011;24447;43.460;25.744;2023-07-31T13:17:32;23.00;;;12.75;;
38693;SDS011;24447;43.460;25.744;2023-07-31T13:19:59;23.88;;;13.30;;
38693;SDS011;24447;43.460;25.744;2023-07-31T13:22:25;25.33;;;14.25;;
38693;SDS011;24447;43.460;25.744;2023-07-31T13:24:51;24.13;;;14.45;;
38693;SDS011;24447;43.460;25.744;2023-07-31T13:27:17;23.65;;;13.48;;
38693;SDS011;24447;43.460;25.744;2023-07-31T13:29:47;24.88;;;13.70;;
38693;SDS011;24447;43.460;25.744;2023-07-31T13:32:15;22.75;;;13.32;;
38693;SDS011;24447;43.460;25.744;2023-07-31T13:34:42;22.38;;;13.35;;
38693;SDS011;24447;43.460;25.744;2023-07-31T13:37:08;22.52;;;12.68;;
38693;SDS011;24447;43.460;25.744;2023-07-31T13:39:34;24.25;;;11.73;;
38693;SDS011;24447;43.460;25.744;2023-07-31T13:42:01;23.70;;;13.73;;
38693;SDS011;24447;43.460;25.744;2023-07-31T13:44:28;24.10;;;13.77;;
38693;SDS011;24447;43.460;25.744;2023-07-31T13:46:54;23.35;;;14.35;;
38693;SDS011;24447;43.460;25.744;2023-07-31T13:49:20;22.90;;;13.95;;
38693;SDS011;24447;43.460;25.744;2023-07-31T13:51:46;21.77;;;13.15;;
38693;SDS011;24447;43.460;25.744;2023-07-31T13:54:12;23.77;;;13.70;;
38693;SDS011;24447;43.460;25.744;2023-07-31T13:56:40;23.88;;;14.13;;
38693;SDS011;24447;43.460;25.744;2023-07-31T13:59:06;24.30;;;13.88;;
38693;SDS011;24447;43.460;25.744;2023-07-31T14:01:41;22.85;;;12.18;;
38693;SDS011;24447;43.460;25.744;2023-07-31T14:04:08;23.00;;;12.52;;
38693;SDS011;24447;43.460;25.744;2023-07-31T14:06:33;23.02;;;13.63;;
38693;SDS011;24447;43.460;25.744;2023-07-31T14:08:59;23.55;;;14.02;;
38693;SDS011;24447;43.460;25.744;2023-07-31T14:11:26;23.42;;;13.02;;
38693;SDS011;24447;43.460;25.744;2023-07-31T14:13:52;23.27;;;13.25;;
38693;SDS011;24447;43.460;25.744;2023-07-31T14:16:18;24.15;;;13.20;;
38693;SDS011;24447;43.460;25.744;2023-07-31T14:18:44;21.13;;;13.07;;
38693;SDS011;24447;43.460;25.744;2023-07-31T14:21:13;23.25;;;12.77;;
38693;SDS011;24447;43.460;25.744;2023-07-31T14:23:39;23.63;;;12.48;;
38693;SDS011;24447;43.460;25.744;2023-07-31T14:26:05;21.58;;;13.02;;
38693;SDS011;24447;43.460;25.744;2023-07-31T14:28:31;24.63;;;13.35;;
38693;SDS011;24447;43.460;25.744;2023-07-31T14:30:57;24.63;;;13.75;;
38693;SDS011;24447;43.460;25.744;2023-07-31T14:33:23;25.08;;;14.50;;